Terminal Aerodrome Forecast
Issued by NWS Goodland, KS

Home | Current Version | Previous Version | Text Only | Print | Product List | Glossary On
Versions: 1 2 3 4 5 6 7 8 9 10 11 12 13 14 15 16 17
000
FTUS43 KGLD 210521
TAFGLD
TAF
KGLD 210521Z 2106/2206 VRB06KT P6SM FEW250
     FM211400 09007KT P6SM SCT080 SCT250
     FM220000 13008KT P6SM BKN080=

USA.gov is the U.S. government's official web portal to all federal, state and local government web resources and services.